Time,TemperatureF,DewpointF,PressureIn,WindDirection,WindDirectionDegrees,WindSpeedMPH,WindSpeedGustMPH,Humidity,HourlyPrecipIn,Conditions,Clouds,dailyrainin,SoftwareType,DateUTC
2013-12-03 00:00:00,29.5,27.5,29.89,NE,55,0.0,0.0,92,0.00,,CLR,0.06,VWS V13.01,2013-12-03 05:00:00,
2013-12-03 00:01:00,29.5,27.5,29.89,NE,55,0.0,0.0,92,0.00,,CLR,0.06,VWS V13.01,2013-12-03 05:01:00,
2013-12-03 00:02:00,29.5,27.5,29.89,NE,55,0.0,0.0,92,0.00,,CLR,0.00,VWS V13.01,2013-12-03 05:02:00,
2013-12-03 00:03:00,29.5,27.5,29.89,NE,55,0.0,0.0,92,0.00,,CLR,0.00,VWS V13.01,2013-12-03 05:03:00,
2013-12-03 00:08:00,29.4,27.4,29.89,NE,55,0.0,0.0,92,0.00,,CLR,0.00,VWS V13.01,2013-12-03 05:08:00,
2013-12-03 00:13:00,29.3,27.3,29.89,NE,55,0.0,0.0,92,0.00,,CLR,0.00,VWS V13.01,2013-12-03 05:13:00,
2013-12-03 00:18:00,29.3,27.3,29.89,NE,55,0.0,0.0,92,0.00,,CLR,0.00,VWS V13.01,2013-12-03 05:18:00,
2013-12-03 00:23:00,29.2,27.2,29.89,NE,55,0.0,0.0,92,0.00,,CLR,0.00,VWS V13.01,2013-12-03 05:23:00,
2013-12-03 00:28:00,29.2,27.2,29.90,NE,55,0.0,0.0,92,0.00,,CLR,0.00,VWS V13.01,2013-12-03 05:28:00,
2013-12-03 00:33:00,29.2,27.2,29.90,NE,55,0.0,0.0,92,0.00,,CLR,0.00,VWS V13.01,2013-12-03 05:33:00,
2013-12-03 00:38:00,29.2,27.4,29.90,NE,55,0.0,0.0,93,0.00,,CLR,0.00,VWS V13.01,2013-12-03 05:38:00,
2013-12-03 00:43:00,29.2,27.4,29.90,NE,55,0.0,0.0,93,0.00,,CLR,0.00,VWS V13.01,2013-12-03 05:43:00,
2013-12-03 00:48:00,29.2,27.4,29.90,NE,55,0.0,0.0,93,0.00,,CLR,0.00,VWS V13.01,2013-12-03 05:48:00,
2013-12-03 00:53:00,29.1,27.3,29.90,NE,55,0.0,0.0,93,0.00,,CLR,0.00,VWS V13.01,2013-12-03 05:53:00,
2013-12-03 00:58:00,29.0,27.2,29.90,NE,55,0.0,0.0,93,0.00,,CLR,0.00,VWS V13.01,2013-12-03 05:58:00,
2013-12-03 01:03:00,29.0,27.2,29.90,NE,55,0.0,0.0,93,0.00,,CLR,0.00,VWS V13.01,2013-12-03 06:03:00,
2013-12-03 01:08:00,29.0,27.0,29.90,NE,55,0.0,0.0,92,0.00,,CLR,0.00,VWS V13.01,2013-12-03 06:08:00,
2013-12-03 01:13:00,28.9,26.9,29.89,NE,55,0.0,0.0,92,0.00,,CLR,0.00,VWS V13.01,2013-12-03 06:13:00,
2013-12-03 01:18:00,28.9,26.9,29.89,NE,55,0.0,0.0,92,0.00,,CLR,0.00,VWS V13.01,2013-12-03 06:18:00,
2013-12-03 01:23:00,28.8,26.8,29.90,NE,55,0.0,0.0,92,0.00,,CLR,0.00,VWS V13.01,2013-12-03 06:23:00,
2013-12-03 01:28:00,28.8,26.8,29.90,NE,55,0.0,0.0,92,0.00,,CLR,0.00,VWS V13.01,2013-12-03 06:28:00,
2013-12-03 01:33:00,28.7,26.9,29.90,NE,55,0.0,0.0,93,0.00,,CLR,0.00,VWS V13.01,2013-12-03 06:33:00,
2013-12-03 01:38:00,28.6,26.6,29.90,NE,55,0.0,0.0,92,0.00,,CLR,0.00,VWS V13.01,2013-12-03 06:38:00,
2013-12-03 01:43:00,28.6,26.8,29.90,NE,55,0.0,0.0,93,0.00,,CLR,0.00,VWS V13.01,2013-12-03 06:43:00,
2013-12-03 01:48:00,28.5,26.7,29.90,NE,55,0.0,0.0,93,0.00,,CLR,0.00,VWS V13.01,2013-12-03 06:48:00,
2013-12-03 01:53:00,28.5,26.7,29.90,NE,55,0.0,0.0,93,0.00,,CLR,0.00,VWS V13.01,2013-12-03 06:53:00,
2013-12-03 01:58:00,28.6,26.8,29.90,NE,55,0.0,0.0,93,0.00,,CLR,0.00,VWS V13.01,2013-12-03 06:58:00,
2013-12-03 02:03:00,28.7,26.9,29.90,NE,55,0.0,0.0,93,0.00,,SCT030,0.00,VWS V13.01,2013-12-03 07:03:00,
2013-12-03 02:08:00,28.8,27.0,29.90,NE,55,0.0,0.0,93,0.00,,SCT030,0.00,VWS V13.01,2013-12-03 07:08:00,
2013-12-03 02:13:00,28.7,26.9,29.90,NE,55,0.0,0.0,93,0.00,,SCT030,0.00,VWS V13.01,2013-12-03 07:13:00,
2013-12-03 02:18:00,28.7,26.9,29.90,NE,55,0.0,1.0,93,0.00,,SCT030,0.00,VWS V13.01,2013-12-03 07:18:00,
2013-12-03 02:23:00,28.7,26.9,29.90,NE,55,0.0,1.0,93,0.00,,SCT030,0.00,VWS V13.01,2013-12-03 07:23:00,
2013-12-03 02:28:00,28.6,26.8,29.90,NE,55,0.0,1.0,93,0.00,,SCT030,0.00,VWS V13.01,2013-12-03 07:28:00,
2013-12-03 02:33:00,28.5,26.7,29.90,NE,55,0.0,0.0,93,0.00,,SCT030,0.00,VWS V13.01,2013-12-03 07:33:00,
2013-12-03 02:38:00,28.5,26.7,29.90,NE,55,0.0,0.0,93,0.00,,SCT030,0.00,VWS V13.01,2013-12-03 07:38:00,
2013-12-03 02:43:00,28.4,26.6,29.90,NE,55,0.0,0.0,93,0.00,,SCT030,0.00,VWS V13.01,2013-12-03 07:43:00,
2013-12-03 02:48:00,28.3,26.5,29.90,NE,55,0.0,0.0,93,0.00,,SCT030,0.00,VWS V13.01,2013-12-03 07:48:00,
2013-12-03 02:53:00,28.3,26.5,29.90,NE,55,0.0,0.0,93,0.00,,SCT030,0.00,VWS V13.01,2013-12-03 07:53:00,
2013-12-03 02:58:00,28.3,26.5,29.90,NE,55,0.0,0.0,93,0.00,,SCT030,0.00,VWS V13.01,2013-12-03 07:58:00,
2013-12-03 03:03:00,28.3,26.5,29.91,NE,55,0.0,0.0,93,0.00,,FEW030,0.00,VWS V13.01,2013-12-03 08:03:00,
2013-12-03 03:08:00,28.3,26.5,29.91,NE,55,0.0,0.0,93,0.00,,FEW030,0.00,VWS V13.01,2013-12-03 08:08:00,
2013-12-03 03:13:00,28.2,26.4,29.90,NE,55,0.0,0.0,93,0.00,,FEW030,0.00,VWS V13.01,2013-12-03 08:13:00,
2013-12-03 03:19:00,28.2,26.4,29.90,NE,55,0.0,0.0,93,0.00,,FEW030,0.00,VWS V13.01,2013-12-03 08:19:00,
2013-12-03 03:24:00,28.1,26.3,29.90,NE,55,0.0,0.0,93,0.00,,FEW030,0.00,VWS V13.01,2013-12-03 08:24:00,
2013-12-03 03:29:00,28.1,26.3,29.90,NE,55,0.0,0.0,93,0.00,,FEW030,0.00,VWS V13.01,2013-12-03 08:29:00,
2013-12-03 03:34:00,28.1,26.3,29.90,NE,55,0.0,0.0,93,0.00,,FEW030,0.00,VWS V13.01,2013-12-03 08:34:00,
2013-12-03 03:39:00,28.1,26.3,29.90,NE,55,0.0,0.0,93,0.00,,FEW030,0.00,VWS V13.01,2013-12-03 08:39:00,
2013-12-03 03:44:00,28.0,26.2,29.90,NE,55,0.0,0.0,93,0.00,,FEW030,0.00,VWS V13.01,2013-12-03 08:44:00,
2013-12-03 03:49:00,28.1,26.3,29.90,NE,55,0.0,0.0,93,0.00,,FEW030,0.00,VWS V13.01,2013-12-03 08:49:00,
2013-12-03 03:54:00,28.1,26.3,29.90,NE,55,0.0,0.0,93,0.00,,FEW030,0.00,VWS V13.01,2013-12-03 08:54:00,
2013-12-03 03:59:00,28.2,26.4,29.90,NE,55,0.0,0.0,93,0.00,,FEW030,0.00,VWS V13.01,2013-12-03 08:59:00,
2013-12-03 04:04:00,28.1,26.3,29.90,NE,55,0.0,0.0,93,0.00,,CLR,0.00,VWS V13.01,2013-12-03 09:04:00,
2013-12-03 04:09:00,28.2,26.4,29.90,NE,55,0.0,0.0,93,0.00,,CLR,0.00,VWS V13.01,2013-12-03 09:09:00,
2013-12-03 04:14:00,28.2,26.2,29.90,NE,55,0.0,0.0,92,0.00,,CLR,0.00,VWS V13.01,2013-12-03 09:14:00,
2013-12-03 04:19:00,28.2,26.2,29.90,NE,55,0.0,0.0,92,0.00,,CLR,0.00,VWS V13.01,2013-12-03 09:19:00,
2013-12-03 04:24:00,28.3,26.3,29.90,NE,55,0.0,0.0,92,0.00,,CLR,0.00,VWS V13.01,2013-12-03 09:24:00,
2013-12-03 04:29:00,28.4,26.6,29.90,NE,55,0.0,0.0,93,0.00,,CLR,0.00,VWS V13.01,2013-12-03 09:29:00,
2013-12-03 04:34:00,28.5,26.5,29.90,NE,55,0.0,0.0,92,0.00,,CLR,0.00,VWS V13.01,2013-12-03 09:34:00,
2013-12-03 04:39:00,28.7,26.7,29.90,NE,55,0.0,0.0,92,0.00,,CLR,0.00,VWS V13.01,2013-12-03 09:39:00,
2013-12-03 04:44:00,28.8,26.8,29.90,NE,55,0.0,0.0,92,0.00,,CLR,0.00,VWS V13.01,2013-12-03 09:44:00,
2013-12-03 04:49:00,28.8,26.8,29.91,NE,55,0.0,0.0,92,0.00,,CLR,0.00,VWS V13.01,2013-12-03 09:49:00,
2013-12-03 04:54:00,28.8,26.8,29.90,NE,55,0.0,0.0,92,0.00,,CLR,0.00,VWS V13.01,2013-12-03 09:54:00,
2013-12-03 04:59:00,28.9,26.9,29.90,NE,55,0.0,0.0,92,0.00,,CLR,0.00,VWS V13.01,2013-12-03 09:59:00,
2013-12-03 05:04:00,28.9,26.9,29.90,NE,55,0.0,0.0,92,0.00,,CLR,0.00,VWS V13.01,2013-12-03 10:04:00,
2013-12-03 05:09:00,28.8,26.8,29.90,NE,55,0.0,0.0,92,0.00,,CLR,0.00,VWS V13.01,2013-12-03 10:09:00,
2013-12-03 05:14:00,28.8,26.5,29.91,NE,55,0.0,0.0,91,0.00,,CLR,0.00,VWS V13.01,2013-12-03 10:14:00,
2013-12-03 05:19:00,28.9,26.9,29.91,NE,55,0.0,0.0,92,0.00,,CLR,0.00,VWS V13.01,2013-12-03 10:19:00,
2013-12-03 05:24:00,29.0,26.7,29.91,NE,55,0.0,1.0,91,0.00,,CLR,0.00,VWS V13.01,2013-12-03 10:24:00,
2013-12-03 05:29:00,29.0,26.7,29.91,NE,55,0.0,1.0,91,0.00,,CLR,0.00,VWS V13.01,2013-12-03 10:29:00,
2013-12-03 05:34:00,29.2,26.9,29.90,NE,55,0.0,1.0,91,0.00,,CLR,0.00,VWS V13.01,2013-12-03 10:34:00,
2013-12-03 05:39:00,29.3,27.0,29.90,NE,55,0.0,1.0,91,0.00,,CLR,0.00,VWS V13.01,2013-12-03 10:39:00,
2013-12-03 05:44:00,29.4,27.1,29.90,NE,55,0.0,1.0,91,0.00,,CLR,0.00,VWS V13.01,2013-12-03 10:44:00,
2013-12-03 05:49:00,29.4,27.1,29.90,NE,55,0.0,1.0,91,0.00,,CLR,0.00,VWS V13.01,2013-12-03 10:49:00,
2013-12-03 05:54:00,29.6,27.3,29.90,NE,55,0.0,2.0,91,0.00,,CLR,0.00,VWS V13.01,2013-12-03 10:54:00,
2013-12-03 05:59:00,29.7,27.1,29.91,NE,55,0.0,2.0,90,0.00,,CLR,0.00,VWS V13.01,2013-12-03 10:59:00,
2013-12-03 06:04:00,29.7,27.1,29.91,SE,138,0.0,2.0,90,0.00,,CLR,0.00,VWS V13.01,2013-12-03 11:04:00,
2013-12-03 06:09:00,29.7,27.1,29.91,SE,138,0.0,2.0,90,0.00,,CLR,0.00,VWS V13.01,2013-12-03 11:09:00,
2013-12-03 06:14:00,29.7,26.9,29.91,SE,138,0.0,2.0,89,0.00,,CLR,0.00,VWS V13.01,2013-12-03 11:14:00,
2013-12-03 06:19:00,29.7,26.9,29.91,SE,138,0.0,2.0,89,0.00,,CLR,0.00,VWS V13.01,2013-12-03 11:19:00,
2013-12-03 06:24:00,29.7,26.9,29.91,SE,138,0.0,2.0,89,0.00,,CLR,0.00,VWS V13.01,2013-12-03 11:24:00,
2013-12-03 06:29:00,29.7,26.9,29.91,SE,138,0.0,2.0,89,0.00,,CLR,0.00,VWS V13.01,2013-12-03 11:29:00,
2013-12-03 06:34:00,29.7,26.9,29.91,SE,138,0.0,0.0,89,0.00,,CLR,0.00,VWS V13.01,2013-12-03 11:34:00,
2013-12-03 06:39:00,29.7,26.6,29.92,SE,138,0.0,1.0,88,0.00,,CLR,0.00,VWS V13.01,2013-12-03 11:39:00,
2013-12-03 06:44:00,29.7,26.6,29.92,SE,138,0.0,1.0,88,0.00,,CLR,0.00,VWS V13.01,2013-12-03 11:44:00,
2013-12-03 06:49:00,29.7,26.6,29.91,SE,138,0.0,1.0,88,0.00,,CLR,0.00,VWS V13.01,2013-12-03 11:49:00,
2013-12-03 06:54:00,29.8,26.7,29.91,SE,138,0.0,1.0,88,0.00,,CLR,0.00,VWS V13.01,2013-12-03 11:54:00,
2013-12-03 06:59:00,29.9,26.8,29.91,SE,138,0.0,1.0,88,0.00,,CLR,0.00,VWS V13.01,2013-12-03 11:59:00,
2013-12-03 07:04:00,30.1,26.7,29.91,SE,142,0.0,1.0,87,0.00,,BKN090,0.00,VWS V13.01,2013-12-03 12:04:00,
2013-12-03 07:09:00,30.1,26.7,29.92,SE,142,0.0,1.0,87,0.00,,BKN090,0.00,VWS V13.01,2013-12-03 12:09:00,
2013-12-03 07:14:00,30.1,26.7,29.92,SE,142,0.0,1.0,87,0.00,,BKN090,0.00,VWS V13.01,2013-12-03 12:14:00,
2013-12-03 07:19:00,30.1,26.7,29.91,SE,142,0.0,1.0,87,0.00,,BKN090,0.00,VWS V13.01,2013-12-03 12:19:00,
2013-12-03 07:24:00,30.1,26.7,29.91,SE,142,0.0,1.0,87,0.00,,BKN090,0.00,VWS V13.01,2013-12-03 12:24:00,
2013-12-03 07:29:00,30.0,26.6,29.91,SE,142,0.0,1.0,87,0.00,,BKN090,0.00,VWS V13.01,2013-12-03 12:29:00,
2013-12-03 07:34:00,29.9,26.5,29.91,SE,142,0.0,0.0,87,0.00,,BKN090,0.00,VWS V13.01,2013-12-03 12:34:00,
2013-12-03 07:39:00,29.8,26.4,29.91,SE,142,0.0,0.0,87,0.00,,BKN090,0.00,VWS V13.01,2013-12-03 12:39:00,
2013-12-03 07:44:00,29.7,26.3,29.91,SE,142,0.0,0.0,87,0.00,,BKN090,0.00,VWS V13.01,2013-12-03 12:44:00,
2013-12-03 07:50:00,29.6,26.2,29.92,SSE,153,0.0,2.0,87,0.00,,BKN090,0.00,VWS V13.01,2013-12-03 12:50:00,
2013-12-03 07:55:00,29.6,26.2,29.92,SSE,153,0.0,2.0,87,0.00,,BKN090,0.00,VWS V13.01,2013-12-03 12:55:00,
2013-12-03 08:00:00,29.6,26.2,29.92,SSE,153,0.0,2.0,87,0.00,,BKN090,0.00,VWS V13.01,2013-12-03 13:00:00,
2013-12-03 08:05:00,29.7,26.3,29.92,SSE,153,0.0,1.0,87,0.00,,SCT090,0.00,VWS V13.01,2013-12-03 13:05:00,
2013-12-03 08:10:00,29.8,26.7,29.92,SSE,153,0.0,1.0,88,0.00,,SCT090,0.00,VWS V13.01,2013-12-03 13:10:00,
2013-12-03 08:15:00,30.1,27.0,29.92,SSE,153,0.0,1.0,88,0.00,,SCT090,0.00,VWS V13.01,2013-12-03 13:15:00,
2013-12-03 08:20:00,30.2,27.1,29.92,SSE,153,0.0,1.0,88,0.00,,SCT090,0.00,VWS V13.01,2013-12-03 13:20:00,
2013-12-03 08:25:00,30.5,27.1,29.92,SSE,153,0.0,1.0,87,0.00,,SCT090,0.00,VWS V13.01,2013-12-03 13:25:00,
2013-12-03 08:30:00,30.6,27.2,29.93,SSE,153,1.0,1.0,87,0.00,,SCT090,0.00,VWS V13.01,2013-12-03 13:30:00,
2013-12-03 08:35:00,30.7,27.3,29.93,SSE,155,0.0,2.0,87,0.00,,SCT090,0.00,VWS V13.01,2013-12-03 13:35:00,
2013-12-03 08:40:00,30.8,27.4,29.94,SSE,155,0.0,2.0,87,0.00,,SCT090,0.00,VWS V13.01,2013-12-03 13:40:00,
2013-12-03 08:45:00,30.9,27.5,29.94,SSE,155,0.0,2.0,87,0.00,,SCT090,0.00,VWS V13.01,2013-12-03 13:45:00,
2013-12-03 08:50:00,31.1,27.7,29.94,SSE,155,0.0,2.0,87,0.00,,SCT090,0.00,VWS V13.01,2013-12-03 13:50:00,
2013-12-03 08:55:00,31.4,28.0,29.94,NE,43,0.0,2.0,87,0.00,,SCT090,0.00,VWS V13.01,2013-12-03 13:55:00,
2013-12-03 09:00:00,31.7,28.3,29.94,NE,43,0.0,0.0,87,0.00,,SCT090,0.00,VWS V13.01,2013-12-03 14:00:00,
2013-12-03 09:05:00,32.0,28.6,29.94,NE,43,0.0,1.0,87,0.00,,BKN085,0.00,VWS V13.01,2013-12-03 14:05:00,
2013-12-03 09:10:00,32.4,28.7,29.94,NE,43,0.0,1.0,86,0.00,,BKN085,0.00,VWS V13.01,2013-12-03 14:10:00,
2013-12-03 09:15:00,32.6,28.9,29.93,NE,43,0.0,1.0,86,0.00,,BKN085,0.00,VWS V13.01,2013-12-03 14:15:00,
2013-12-03 09:20:00,32.9,28.9,29.93,NE,47,0.0,1.0,85,0.00,,BKN085,0.00,VWS V13.01,2013-12-03 14:20:00,
2013-12-03 09:25:00,33.2,29.2,29.94,NE,47,0.0,1.0,85,0.00,,BKN085,0.00,VWS V13.01,2013-12-03 14:25:00,
2013-12-03 09:30:00,33.4,29.4,29.94,NE,47,0.0,0.0,85,0.00,,BKN085,0.00,VWS V13.01,2013-12-03 14:30:00,
2013-12-03 09:35:00,33.5,29.2,29.95,NE,47,0.0,1.0,84,0.00,,BKN085,0.00,VWS V13.01,2013-12-03 14:35:00,
2013-12-03 09:40:00,33.7,29.4,29.94,NE,47,0.0,1.0,84,0.00,,BKN085,0.00,VWS V13.01,2013-12-03 14:40:00,
2013-12-03 09:45:00,33.9,29.6,29.94,NE,47,0.0,1.0,84,0.00,,BKN085,0.00,VWS V13.01,2013-12-03 14:45:00,
2013-12-03 09:50:00,34.2,29.9,29.93,NE,47,0.0,1.0,84,0.00,,BKN085,0.00,VWS V13.01,2013-12-03 14:50:00,
2013-12-03 09:55:00,34.4,29.8,29.93,NE,47,0.0,2.0,83,0.00,,BKN085,0.00,VWS V13.01,2013-12-03 14:55:00,
2013-12-03 10:00:00,34.4,29.8,29.94,NE,47,1.0,1.0,83,0.00,,BKN085,0.00,VWS V13.01,2013-12-03 15:00:00,
2013-12-03 10:05:00,34.6,30.0,29.94,NE,49,1.0,3.0,83,0.00,,OVC050,0.00,VWS V13.01,2013-12-03 15:05:00,
2013-12-03 10:10:00,34.8,30.2,29.94,NE,50,0.0,3.0,83,0.00,,OVC050,0.00,VWS V13.01,2013-12-03 15:10:00,
2013-12-03 10:15:00,35.0,30.1,29.94,NE,50,0.0,3.0,82,0.00,,OVC050,0.00,VWS V13.01,2013-12-03 15:15:00,
2013-12-03 10:20:00,35.2,30.3,29.93,NE,51,0.0,3.0,82,0.00,,OVC050,0.00,VWS V13.01,2013-12-03 15:20:00,
2013-12-03 10:25:00,35.2,30.3,29.93,NE,51,0.0,3.0,82,0.00,,OVC050,0.00,VWS V13.01,2013-12-03 15:25:00,
2013-12-03 10:30:00,35.4,30.5,29.93,NE,51,3.0,3.0,82,0.00,,OVC050,0.00,VWS V13.01,2013-12-03 15:30:00,
2013-12-03 10:35:00,35.5,30.6,29.93,ENE,60,0.0,3.0,82,0.00,,OVC050,0.00,VWS V13.01,2013-12-03 15:35:00,
2013-12-03 10:40:00,35.7,30.8,29.92,ENE,59,0.0,3.0,82,0.00,,OVC050,0.00,VWS V13.01,2013-12-03 15:40:00,
2013-12-03 10:45:00,36.0,31.0,29.92,NE,47,1.0,3.0,82,0.00,,OVC050,0.00,VWS V13.01,2013-12-03 15:45:00,
2013-12-03 10:50:00,36.1,30.8,29.91,ENE,57,1.0,6.0,81,0.00,,OVC050,0.00,VWS V13.01,2013-12-03 15:50:00,
2013-12-03 10:55:00,36.5,31.2,29.91,NE,49,0.0,6.0,81,0.00,,OVC050,0.00,VWS V13.01,2013-12-03 15:55:00,
2013-12-03 11:00:00,36.9,31.3,29.91,NE,42,2.0,2.0,80,0.00,,BKN050,0.00,VWS V13.01,2013-12-03 16:00:00,
2013-12-03 11:05:00,37.1,31.2,29.92,NE,46,2.0,4.0,79,0.00,,BKN050,0.00,VWS V13.01,2013-12-03 16:05:00,
2013-12-03 11:10:00,37.5,31.6,29.92,NE,47,0.0,4.0,79,0.00,,BKN050,0.00,VWS V13.01,2013-12-03 16:10:00,
2013-12-03 11:15:00,38.1,32.2,29.92,NE,47,0.0,4.0,79,0.00,,BKN050,0.00,VWS V13.01,2013-12-03 16:15:00,
2013-12-03 11:20:00,38.9,32.6,29.92,NE,47,0.0,4.0,78,0.00,,BKN050,0.00,VWS V13.01,2013-12-03 16:20:00,
2013-12-03 11:25:00,39.5,32.9,29.91,NE,47,0.0,4.0,77,0.00,,BKN050,0.00,VWS V13.01,2013-12-03 16:25:00,
2013-12-03 11:30:00,39.9,33.0,29.91,NE,47,0.0,1.0,76,0.00,,BKN050,0.00,VWS V13.01,2013-12-03 16:30:00,
2013-12-03 11:35:00,39.7,32.8,29.91,NE,47,0.0,3.0,76,0.00,,BKN050,0.00,VWS V13.01,2013-12-03 16:35:00,
2013-12-03 11:40:00,39.8,32.9,29.91,NE,47,0.0,3.0,76,0.00,,BKN050,0.00,VWS V13.01,2013-12-03 16:40:00,
2013-12-03 11:45:00,40.1,33.5,29.90,NE,47,0.0,3.0,77,0.00,,BKN050,0.00,VWS V13.01,2013-12-03 16:45:00,
2013-12-03 11:50:00,40.4,33.8,29.90,NE,47,0.0,3.0,77,0.00,,BKN050,0.00,VWS V13.01,2013-12-03 16:50:00,
2013-12-03 11:55:00,40.7,33.7,29.90,NE,47,0.0,3.0,76,0.00,,BKN050,0.00,VWS V13.01,2013-12-03 16:55:00,
2013-12-03 12:01:00,40.9,33.9,29.90,NE,47,0.0,1.0,76,0.00,,CLR,0.00,VWS V13.01,2013-12-03 17:01:00,
2013-12-03 12:06:00,41.1,34.1,29.89,NE,47,0.0,1.0,76,0.00,,CLR,0.00,VWS V13.01,2013-12-03 17:06:00,
2013-12-03 12:11:00,41.3,34.0,29.89,NE,47,0.0,3.0,75,0.00,,CLR,0.00,VWS V13.01,2013-12-03 17:11:00,
2013-12-03 12:16:00,41.3,34.0,29.89,NE,47,0.0,3.0,75,0.00,,CLR,0.00,VWS V13.01,2013-12-03 17:16:00,
2013-12-03 12:21:00,40.9,33.3,29.89,NE,47,1.0,3.0,74,0.00,,CLR,0.00,VWS V13.01,2013-12-03 17:21:00,
2013-12-03 12:26:00,40.9,33.9,29.89,NE,47,1.0,3.0,76,0.00,,CLR,0.00,VWS V13.01,2013-12-03 17:26:00,
2013-12-03 12:31:00,41.1,34.1,29.89,NE,47,0.0,0.0,76,0.00,,CLR,0.00,VWS V13.01,2013-12-03 17:31:00,
2013-12-03 12:36:00,41.4,34.1,29.89,NE,47,0.0,3.0,75,0.00,,CLR,0.00,VWS V13.01,2013-12-03 17:36:00,
2013-12-03 12:41:00,41.5,34.2,29.89,NE,47,2.0,3.0,75,0.00,,CLR,0.00,VWS V13.01,2013-12-03 17:41:00,
2013-12-03 12:46:00,41.6,34.3,29.89,NE,47,0.0,3.0,75,0.00,,CLR,0.00,VWS V13.01,2013-12-03 17:46:00,
2013-12-03 12:51:00,41.9,34.6,29.89,NE,47,0.0,3.0,75,0.00,,CLR,0.00,VWS V13.01,2013-12-03 17:51:00,
2013-12-03 12:56:00,41.9,34.2,29.88,NE,47,1.0,3.0,74,0.00,,CLR,0.00,VWS V13.01,2013-12-03 17:56:00,
2013-12-03 13:01:00,42.0,34.7,29.88,NE,47,0.0,2.0,75,0.00,,FEW065,0.00,VWS V13.01,2013-12-03 18:01:00,
2013-12-03 13:06:00,42.2,34.9,29.89,NE,47,1.0,2.0,75,0.00,,FEW065,0.00,VWS V13.01,2013-12-03 18:06:00,
2013-12-03 13:11:00,42.3,34.6,29.89,NE,47,0.0,3.0,74,0.00,,FEW065,0.00,VWS V13.01,2013-12-03 18:11:00,
2013-12-03 13:16:00,42.3,35.0,29.89,NE,47,0.0,3.0,75,0.00,,FEW065,0.00,VWS V13.01,2013-12-03 18:16:00,
2013-12-03 13:21:00,42.2,34.5,29.89,NNW,342,0.0,5.0,74,0.00,,FEW065,0.00,VWS V13.01,2013-12-03 18:21:00,
2013-12-03 13:26:00,41.6,33.9,29.89,ENE,69,0.0,5.0,74,0.00,,FEW065,0.00,VWS V13.01,2013-12-03 18:26:00,
2013-12-03 13:31:00,41.2,33.9,29.90,North,351,0.0,1.0,75,0.00,,FEW065,0.00,VWS V13.01,2013-12-03 18:31:00,
2013-12-03 13:36:00,40.7,33.4,29.90,North,355,3.0,4.0,75,0.00,,FEW065,0.00,VWS V13.01,2013-12-03 18:36:00,
2013-12-03 13:41:00,40.3,33.3,29.91,North,355,0.0,4.0,76,0.00,,FEW065,0.00,VWS V13.01,2013-12-03 18:41:00,
2013-12-03 13:46:00,39.9,33.0,29.91,ENE,65,0.0,4.0,76,0.00,,FEW065,0.00,VWS V13.01,2013-12-03 18:46:00,
2013-12-03 13:51:00,39.7,33.1,29.91,North,355,0.0,4.0,77,0.00,,FEW065,0.00,VWS V13.01,2013-12-03 18:51:00,
2013-12-03 13:56:00,39.7,33.1,29.91,NE,40,1.0,4.0,77,0.00,,FEW065,0.00,VWS V13.01,2013-12-03 18:56:00,
2013-12-03 14:01:00,39.7,33.4,29.91,NNE,31,1.0,4.0,78,0.00,,OVC055,0.00,VWS V13.01,2013-12-03 19:01:00,
2013-12-03 14:06:00,39.6,33.0,29.90,NE,37,0.0,4.0,77,0.00,,OVC055,0.00,VWS V13.01,2013-12-03 19:06:00,
2013-12-03 14:11:00,39.5,33.2,29.90,ESE,107,0.0,4.0,78,0.00,,OVC055,0.00,VWS V13.01,2013-12-03 19:11:00,
2013-12-03 14:16:00,39.5,33.2,29.90,ESE,107,1.0,4.0,78,0.00,,OVC055,0.00,VWS V13.01,2013-12-03 19:16:00,
2013-12-03 14:21:00,39.5,33.5,29.90,ENE,57,0.0,4.0,79,0.00,,OVC055,0.00,VWS V13.01,2013-12-03 19:21:00,
2013-12-03 14:26:00,39.6,33.6,29.90,NNE,32,0.0,4.0,79,0.00,,OVC055,0.00,VWS V13.01,2013-12-03 19:26:00,
2013-12-03 14:31:00,39.6,33.6,29.90,NE,37,0.0,4.0,79,0.00,,OVC055,0.00,VWS V13.01,2013-12-03 19:31:00,
2013-12-03 14:36:00,39.5,33.5,29.90,NNE,32,0.0,4.0,79,0.00,,OVC055,0.00,VWS V13.01,2013-12-03 19:36:00,
2013-12-03 14:41:00,39.5,33.5,29.90,NE,40,2.0,4.0,79,0.00,,OVC055,0.00,VWS V13.01,2013-12-03 19:41:00,
2013-12-03 14:46:00,39.5,33.5,29.90,NE,40,1.0,4.0,79,0.00,,OVC055,0.00,VWS V13.01,2013-12-03 19:46:00,
2013-12-03 14:51:00,39.5,33.5,29.90,NE,40,1.0,4.0,79,0.00,,OVC055,0.00,VWS V13.01,2013-12-03 19:51:00,
2013-12-03 14:56:00,39.6,34.0,29.90,NE,40,0.0,4.0,80,0.00,,OVC055,0.00,VWS V13.01,2013-12-03 19:56:00,
2013-12-03 15:01:00,39.5,33.5,29.90,NE,36,1.0,2.0,79,0.00,,OVC047,0.00,VWS V13.01,2013-12-03 20:01:00,
2013-12-03 15:06:00,39.5,33.5,29.90,NE,48,0.0,3.0,79,0.00,,OVC047,0.00,VWS V13.01,2013-12-03 20:06:00,
2013-12-03 15:11:00,39.4,33.4,29.91,NE,49,0.0,5.0,79,0.00,,OVC047,0.00,VWS V13.01,2013-12-03 20:11:00,
2013-12-03 15:16:00,39.4,33.8,29.91,NE,49,0.0,5.0,80,0.00,,OVC047,0.00,VWS V13.01,2013-12-03 20:16:00,
2013-12-03 15:21:00,39.4,33.8,29.91,NE,49,0.0,5.0,80,0.00,,OVC047,0.00,VWS V13.01,2013-12-03 20:21:00,
2013-12-03 15:26:00,39.5,33.8,29.90,NE,49,1.0,5.0,80,0.00,,OVC047,0.00,VWS V13.01,2013-12-03 20:26:00,
2013-12-03 15:31:00,39.4,33.8,29.91,NE,49,0.0,0.0,80,0.00,,OVC047,0.00,VWS V13.01,2013-12-03 20:31:00,
2013-12-03 15:36:00,39.5,33.8,29.90,NE,49,1.0,1.0,80,0.00,,OVC047,0.00,VWS V13.01,2013-12-03 20:36:00,
2013-12-03 15:41:00,39.5,33.8,29.91,NE,49,0.0,1.0,80,0.00,,OVC047,0.00,VWS V13.01,2013-12-03 20:41:00,
2013-12-03 15:46:00,39.5,34.2,29.91,NE,49,0.0,2.0,81,0.00,,OVC035,0.00,VWS V13.01,2013-12-03 20:46:00,
2013-12-03 15:51:00,39.5,34.2,29.90,NE,49,0.0,2.0,81,0.00,,OVC035,0.00,VWS V13.01,2013-12-03 20:51:00,
2013-12-03 15:57:00,39.5,34.2,29.90,NE,49,0.0,3.0,81,0.00,,OVC035,0.00,VWS V13.01,2013-12-03 20:57:00,
2013-12-03 16:02:00,39.5,34.2,29.90,NE,49,0.0,2.0,81,0.00,,OVC035,0.00,VWS V13.01,2013-12-03 21:02:00,
2013-12-03 16:07:00,39.6,34.3,29.89,NE,49,0.0,2.0,81,0.00,,OVC035,0.00,VWS V13.01,2013-12-03 21:07:00,
2013-12-03 16:12:00,39.6,34.3,29.89,NE,49,0.0,2.0,81,0.00,,OVC035,0.00,VWS V13.01,2013-12-03 21:12:00,
2013-12-03 16:17:00,39.6,34.3,29.90,NE,49,0.0,2.0,81,0.00,,OVC035,0.00,VWS V13.01,2013-12-03 21:17:00,
2013-12-03 16:22:00,39.6,34.3,29.90,NE,49,0.0,2.0,81,0.00,,OVC035,0.00,VWS V13.01,2013-12-03 21:22:00,
2013-12-03 16:27:00,39.6,34.3,29.89,NE,49,0.0,2.0,81,0.00,,OVC035,0.00,VWS V13.01,2013-12-03 21:27:00,
2013-12-03 16:32:00,39.7,34.4,29.89,NE,49,0.0,0.0,81,0.00,,OVC035,0.00,VWS V13.01,2013-12-03 21:32:00,
2013-12-03 16:37:00,39.7,34.7,29.89,NE,49,0.0,1.0,82,0.00,,OVC035,0.00,VWS V13.01,2013-12-03 21:37:00,
2013-12-03 16:42:00,39.7,34.4,29.90,NE,49,0.0,1.0,81,0.00,,OVC035,0.00,VWS V13.01,2013-12-03 21:42:00,
2013-12-03 16:47:00,39.7,34.7,29.89,NE,49,0.0,1.0,82,0.00,,OVC035,0.00,VWS V13.01,2013-12-03 21:47:00,
2013-12-03 16:52:00,39.6,34.6,29.89,NE,49,0.0,1.0,82,0.00,,OVC035,0.00,VWS V13.01,2013-12-03 21:52:00,
2013-12-03 16:57:00,39.6,34.6,29.89,NE,49,2.0,2.0,82,0.00,,OVC035,0.00,VWS V13.01,2013-12-03 21:57:00,
2013-12-03 17:02:00,39.6,34.6,29.89,NE,49,0.0,1.0,82,0.00,,OVC048,0.00,VWS V13.01,2013-12-03 22:02:00,
2013-12-03 17:07:00,39.5,34.5,29.89,NE,49,0.0,1.0,82,0.00,,OVC048,0.00,VWS V13.01,2013-12-03 22:07:00,
2013-12-03 17:12:00,39.5,34.5,29.89,NE,49,0.0,2.0,82,0.00,,OVC048,0.00,VWS V13.01,2013-12-03 22:12:00,
2013-12-03 17:17:00,39.4,34.4,29.89,NE,49,0.0,2.0,82,0.00,,OVC048,0.00,VWS V13.01,2013-12-03 22:17:00,
2013-12-03 17:22:00,39.4,34.4,29.89,NE,49,1.0,2.0,82,0.00,,OVC048,0.00,VWS V13.01,2013-12-03 22:22:00,
2013-12-03 17:27:00,39.3,34.3,29.89,NE,49,0.0,2.0,82,0.00,,OVC048,0.00,VWS V13.01,2013-12-03 22:27:00,
2013-12-03 17:32:00,39.3,34.3,29.89,NE,49,0.0,2.0,82,0.00,,OVC048,0.00,VWS V13.01,2013-12-03 22:32:00,
2013-12-03 17:37:00,39.2,34.2,29.89,NE,49,0.0,2.0,82,0.00,,OVC048,0.00,VWS V13.01,2013-12-03 22:37:00,
2013-12-03 17:42:00,39.2,34.5,29.89,NE,49,0.0,2.0,83,0.00,,OVC048,0.00,VWS V13.01,2013-12-03 22:42:00,
2013-12-03 17:47:00,39.2,34.5,29.90,NE,49,0.0,2.0,83,0.00,,OVC048,0.00,VWS V13.01,2013-12-03 22:47:00,
2013-12-03 17:52:00,39.2,34.5,29.90,NE,49,0.0,2.0,83,0.00,,OVC048,0.00,VWS V13.01,2013-12-03 22:52:00,
2013-12-03 17:57:00,39.1,34.4,29.90,NE,49,0.0,2.0,83,0.00,,OVC048,0.00,VWS V13.01,2013-12-03 22:57:00,
2013-12-03 18:03:00,39.0,34.3,29.90,NE,49,1.0,1.0,83,0.00,,OVC049,0.00,VWS V13.01,2013-12-03 23:03:00,
2013-12-03 18:08:00,39.0,34.3,29.90,NE,49,0.0,2.0,83,0.00,,OVC049,0.00,VWS V13.01,2013-12-03 23:08:00,
2013-12-03 18:13:00,38.9,34.2,29.90,NE,49,1.0,3.0,83,0.00,,OVC049,0.00,VWS V13.01,2013-12-03 23:13:00,
2013-12-03 18:18:00,38.9,34.2,29.90,NE,49,0.0,3.0,83,0.00,,OVC049,0.00,VWS V13.01,2013-12-03 23:18:00,
2013-12-03 18:23:00,38.9,34.2,29.90,NE,49,0.0,3.0,83,0.00,,OVC049,0.00,VWS V13.01,2013-12-03 23:23:00,
2013-12-03 18:28:00,38.8,34.1,29.91,NE,49,0.0,3.0,83,0.00,,OVC049,0.00,VWS V13.01,2013-12-03 23:28:00,
2013-12-03 18:33:00,38.8,34.4,29.91,NE,49,0.0,0.0,84,0.00,,OVC049,0.00,VWS V13.01,2013-12-03 23:33:00,
2013-12-03 18:38:00,38.7,34.3,29.91,NE,49,0.0,1.0,84,0.00,,OVC049,0.00,VWS V13.01,2013-12-03 23:38:00,
2013-12-03 18:43:00,38.6,34.2,29.91,NE,49,0.0,1.0,84,0.00,,OVC049,0.00,VWS V13.01,2013-12-03 23:43:00,
2013-12-03 18:48:00,38.6,34.2,29.91,NE,49,0.0,2.0,84,0.00,,OVC049,0.00,VWS V13.01,2013-12-03 23:48:00,
2013-12-03 18:53:00,38.6,34.5,29.91,NE,49,0.0,2.0,85,0.00,,OVC049,0.00,VWS V13.01,2013-12-03 23:53:00,
2013-12-03 18:58:00,38.6,34.5,29.91,NE,49,0.0,2.0,85,0.00,,OVC049,0.00,VWS V13.01,2013-12-03 23:58:00,
2013-12-03 19:03:00,38.5,34.4,29.91,NE,49,0.0,0.0,85,0.00,,OVC037,0.00,VWS V13.01,2013-12-04 00:03:00,
2013-12-03 19:08:00,38.4,34.6,29.92,NE,49,0.0,0.0,86,0.00,,OVC037,0.00,VWS V13.01,2013-12-04 00:08:00,
2013-12-03 19:13:00,38.4,34.6,29.91,NE,49,0.0,0.0,86,0.00,,OVC037,0.00,VWS V13.01,2013-12-04 00:13:00,
2013-12-03 19:18:00,38.3,34.5,29.91,NE,49,0.0,0.0,86,0.00,,OVC037,0.00,VWS V13.01,2013-12-04 00:18:00,
2013-12-03 19:23:00,38.3,34.5,29.91,NE,49,0.0,0.0,86,0.00,,OVC037,0.00,VWS V13.01,2013-12-04 00:23:00,
2013-12-03 19:28:00,38.2,34.4,29.91,NE,49,0.0,1.0,86,0.00,,OVC037,0.00,VWS V13.01,2013-12-04 00:28:00,
2013-12-03 19:33:00,38.1,34.6,29.91,NE,49,0.0,0.0,87,0.00,,OVC037,0.00,VWS V13.01,2013-12-04 00:33:00,
2013-12-03 19:38:00,38.0,34.5,29.91,NE,49,0.0,0.0,87,0.00,,OVC037,0.00,VWS V13.01,2013-12-04 00:38:00,
2013-12-03 19:43:00,37.9,34.4,29.91,NE,49,0.0,1.0,87,0.00,,OVC037,0.00,VWS V13.01,2013-12-04 00:43:00,
2013-12-03 19:48:00,37.8,34.3,29.91,NE,49,0.0,1.0,87,0.00,,OVC037,0.00,VWS V13.01,2013-12-04 00:48:00,
2013-12-03 19:53:00,37.7,34.2,29.91,NE,49,0.0,1.0,87,0.00,,OVC037,0.00,VWS V13.01,2013-12-04 00:53:00,
2013-12-03 19:58:00,37.5,34.0,29.91,NE,49,0.0,1.0,87,0.00,,OVC037,0.00,VWS V13.01,2013-12-04 00:58:00,
2013-12-03 20:03:00,37.5,34.3,29.91,NE,49,0.0,0.0,88,0.00,,BKN075,0.00,VWS V13.01,2013-12-04 01:03:00,
2013-12-03 20:08:00,37.4,34.2,29.91,NE,49,0.0,0.0,88,0.00,,BKN075,0.00,VWS V13.01,2013-12-04 01:08:00,
2013-12-03 20:13:00,37.4,34.2,29.91,NE,49,0.0,1.0,88,0.00,,BKN075,0.00,VWS V13.01,2013-12-04 01:13:00,
2013-12-03 20:18:00,37.4,34.2,29.91,NE,49,0.0,1.0,88,0.00,,BKN075,0.00,VWS V13.01,2013-12-04 01:18:00,
2013-12-03 20:23:00,37.5,34.3,29.91,NE,49,0.0,1.0,88,0.00,,BKN075,0.00,VWS V13.01,2013-12-04 01:23:00,
2013-12-03 20:28:00,37.5,34.3,29.91,NE,49,0.0,1.0,88,0.00,,BKN075,0.00,VWS V13.01,2013-12-04 01:28:00,
2013-12-03 20:33:00,37.5,34.3,29.91,NE,49,0.0,0.0,88,0.00,,BKN075,0.00,VWS V13.01,2013-12-04 01:33:00,
2013-12-03 20:38:00,37.5,34.3,29.91,NE,49,0.0,0.0,88,0.00,,BKN075,0.00,VWS V13.01,2013-12-04 01:38:00,
2013-12-03 20:43:00,37.5,34.3,29.91,NE,49,0.0,0.0,88,0.00,,BKN075,0.00,VWS V13.01,2013-12-04 01:43:00,
2013-12-03 20:48:00,37.4,34.5,29.91,NE,49,0.0,0.0,89,0.00,,BKN075,0.00,VWS V13.01,2013-12-04 01:48:00,
2013-12-03 20:53:00,37.4,34.5,29.91,NE,49,0.0,0.0,89,0.00,,BKN075,0.00,VWS V13.01,2013-12-04 01:53:00,
2013-12-03 21:01:00,37.4,34.5,29.90,NE,49,0.0,0.0,89,0.00,,BKN075,0.00,VWS V13.01,2013-12-04 02:01:00,
2013-12-03 21:06:00,37.4,34.5,29.90,NE,49,0.0,0.0,89,0.00,,OVC080,0.00,VWS V13.01,2013-12-04 02:06:00,
2013-12-03 21:11:00,37.3,34.4,29.90,NE,49,0.0,0.0,89,0.00,,OVC080,0.00,VWS V13.01,2013-12-04 02:11:00,
2013-12-03 21:16:00,37.3,34.1,29.90,NE,49,0.0,0.0,88,0.00,,OVC080,0.00,VWS V13.01,2013-12-04 02:16:00,
2013-12-03 21:21:00,37.1,33.9,29.90,NE,49,1.0,1.0,88,0.00,,OVC080,0.00,VWS V13.01,2013-12-04 02:21:00,
2013-12-03 21:26:00,37.1,34.2,29.90,NE,49,0.0,2.0,89,0.00,,OVC080,0.00,VWS V13.01,2013-12-04 02:26:00,
2013-12-03 21:31:00,37.0,34.1,29.90,NE,49,0.0,0.0,89,0.00,,OVC080,0.00,VWS V13.01,2013-12-04 02:31:00,
2013-12-03 21:36:00,36.9,34.0,29.90,NE,49,0.0,0.0,89,0.00,,OVC080,0.00,VWS V13.01,2013-12-04 02:36:00,
2013-12-03 21:41:00,36.7,33.8,29.90,NE,49,0.0,0.0,89,0.00,,OVC080,0.00,VWS V13.01,2013-12-04 02:41:00,
2013-12-03 21:46:00,36.6,33.7,29.90,NE,49,0.0,0.0,89,0.00,,OVC080,0.00,VWS V13.01,2013-12-04 02:46:00,
2013-12-03 21:51:00,36.5,33.6,29.90,NE,49,0.0,0.0,89,0.00,,OVC080,0.00,VWS V13.01,2013-12-04 02:51:00,
2013-12-03 21:56:00,36.4,33.5,29.90,NE,49,0.0,0.0,89,0.00,,OVC080,0.00,VWS V13.01,2013-12-04 02:56:00,
2013-12-03 22:01:00,36.4,33.5,29.89,NE,49,0.0,0.0,89,0.00,,FEW085,0.00,VWS V13.01,2013-12-04 03:01:00,
2013-12-03 22:06:00,36.4,33.8,29.89,NE,49,0.0,0.0,90,0.00,,FEW085,0.00,VWS V13.01,2013-12-04 03:06:00,
2013-12-03 22:11:00,36.4,33.8,29.89,NE,49,0.0,1.0,90,0.00,,FEW085,0.00,VWS V13.01,2013-12-04 03:11:00,
2013-12-03 22:16:00,36.5,33.8,29.89,NE,49,0.0,1.0,90,0.00,,FEW085,0.00,VWS V13.01,2013-12-04 03:16:00,
2013-12-03 22:21:00,36.6,34.0,29.89,NE,49,0.0,1.0,90,0.00,,FEW085,0.00,VWS V13.01,2013-12-04 03:21:00,
2013-12-03 22:26:00,36.7,34.0,29.89,NE,49,0.0,1.0,90,0.00,,FEW085,0.00,VWS V13.01,2013-12-04 03:26:00,
2013-12-03 22:31:00,36.7,34.0,29.89,NE,49,0.0,0.0,90,0.00,,FEW085,0.00,VWS V13.01,2013-12-04 03:31:00,
2013-12-03 22:36:00,36.7,34.0,29.89,NE,49,0.0,0.0,90,0.00,,FEW085,0.00,VWS V13.01,2013-12-04 03:36:00,
2013-12-03 22:41:00,36.8,34.2,29.88,NE,49,0.0,0.0,90,0.00,,FEW085,0.00,VWS V13.01,2013-12-04 03:41:00,
2013-12-03 22:46:00,36.9,34.2,29.88,NE,49,0.0,0.0,90,0.00,,FEW085,0.00,VWS V13.01,2013-12-04 03:46:00,
2013-12-03 22:51:00,36.9,34.5,29.88,NE,49,0.0,1.0,91,0.00,,FEW085,0.00,VWS V13.01,2013-12-04 03:51:00,
2013-12-03 22:56:00,37.3,34.9,29.88,NE,49,0.0,2.0,91,0.00,,FEW085,0.00,VWS V13.01,2013-12-04 03:56:00,
2013-12-03 23:01:00,38.0,35.9,29.88,NE,49,0.0,0.0,92,0.00,,SCT110,0.00,VWS V13.01,2013-12-04 04:01:00,
2013-12-03 23:06:00,38.7,36.6,29.87,ESE,120,0.0,2.0,92,0.00,,SCT110,0.00,VWS V13.01,2013-12-04 04:06:00,
2013-12-03 23:11:00,39.2,37.1,29.87,ESE,120,0.0,2.0,92,0.00,,SCT110,0.00,VWS V13.01,2013-12-04 04:11:00,
2013-12-03 23:16:00,39.7,37.6,29.87,ESE,123,0.0,3.0,92,0.00,,SCT110,0.00,VWS V13.01,2013-12-04 04:16:00,
2013-12-03 23:21:00,40.3,37.9,29.87,ESE,123,0.0,3.0,91,0.00,,SCT110,0.00,VWS V13.01,2013-12-04 04:21:00,
2013-12-03 23:26:00,40.6,38.2,29.87,ESE,117,0.0,3.0,91,0.00,,SCT110,0.00,VWS V13.01,2013-12-04 04:26:00,
2013-12-03 23:31:00,41.1,38.7,29.87,ESE,121,0.0,1.0,91,0.00,,SCT110,0.00,VWS V13.01,2013-12-04 04:31:00,
2013-12-03 23:36:00,41.3,38.6,29.87,SSE,155,1.0,3.0,90,0.00,,SCT110,0.00,VWS V13.01,2013-12-04 04:36:00,
2013-12-03 23:41:00,41.7,39.0,29.87,SE,132,0.0,3.0,90,0.00,,SCT110,0.00,VWS V13.01,2013-12-04 04:41:00,
2013-12-03 23:46:00,42.0,39.0,29.87,SSE,147,0.0,3.0,89,0.00,,SCT110,0.00,VWS V13.01,2013-12-04 04:46:00,
2013-12-03 23:51:00,42.3,39.3,29.86,SE,138,0.0,4.0,89,0.00,,SCT110,0.00,VWS V13.01,2013-12-04 04:51:00,
2013-12-03 23:56:00,42.6,39.3,29.86,SSE,155,0.0,4.0,88,0.00,,SCT110,0.00,VWS V13.01,2013-12-04 04:56:00,